createdAt,value
2023-01-25T00:02:07.157Z,6.60
2023-01-25T00:04:54.546Z,7.30
2023-01-25T00:07:41.497Z,7.60
2023-01-25T00:10:28.947Z,7.30
2023-01-25T00:13:15.876Z,6.67
2023-01-25T00:16:21.714Z,6.90
2023-01-25T00:19:04.059Z,7.27
2023-01-25T00:21:51.250Z,7.03
2023-01-25T00:24:58.215Z,7.80
2023-01-25T00:27:45.565Z,8.43
2023-01-25T00:30:12.902Z,8.03
2023-01-25T00:33:17.549Z,8.53
2023-01-25T00:36:40.708Z,7.67
2023-01-25T00:39:42.588Z,8.20
2023-01-25T00:42:15.983Z,8.20
2023-01-25T00:45:02.917Z,9.17
2023-01-25T00:47:50.544Z,8.50
2023-01-25T00:50:37.542Z,10.20
2023-01-25T00:53:04.793Z,8.37
2023-01-25T00:55:52.563Z,9.07
2023-01-25T00:58:54.323Z,9.97
2023-01-25T01:01:56.303Z,8.50
2023-01-25T01:04:26.682Z,11.07
2023-01-25T01:07:14.858Z,10.67
2023-01-25T01:10:02.036Z,11.03
2023-01-25T01:12:48.969Z,11.07
2023-01-25T01:15:16.187Z,10.60
2023-01-25T01:18:23.196Z,9.40
2023-01-25T01:21:25.009Z,8.77
2023-01-25T01:24:27.331Z,8.63
2023-01-25T01:27:09.287Z,8.03
2023-01-25T01:29:56.455Z,8.97
2023-01-25T01:32:43.454Z,10.10
2023-01-25T01:35:30.763Z,9.10
2023-01-25T01:38:17.691Z,9.30
2023-01-25T01:41:05.124Z,9.77
2023-01-25T01:43:53.204Z,10.33
2023-01-25T01:47:01.964Z,9.93
2023-01-25T01:49:50.137Z,10.40
2023-01-25T01:52:52.099Z,10.40
2023-01-25T01:55:40.239Z,10.60
2023-01-25T01:59:07.617Z,10.17
2023-01-25T02:02:29.424Z,10.03
2023-01-25T02:05:19.772Z,10.00
2023-01-25T02:08:09.506Z,9.73
2023-01-25T02:11:11.628Z,9.50
2023-01-25T02:13:59.750Z,8.67
2023-01-25T02:17:06.815Z,9.10
2023-01-25T02:20:22.179Z,8.60
2023-01-25T02:23:24.916Z,9.17
2023-01-25T02:26:26.839Z,8.70
2023-01-25T02:29:24.625Z,8.80
2023-01-25T02:32:13.461Z,9.33
2023-01-25T02:35:19.599Z,9.43
2023-01-25T02:38:21.459Z,8.47
2023-01-25T02:41:14.089Z,8.00
2023-01-25T02:44:10.070Z,8.93
2023-01-25T02:46:57.314Z,8.70
2023-01-25T02:50:04.283Z,8.00
2023-01-25T02:53:06.062Z,7.97
2023-01-25T02:55:51.055Z,7.67
2023-01-25T02:58:38.238Z,9.23
2023-01-25T03:01:25.187Z,11.40
2023-01-25T03:04:12.459Z,8.03
2023-01-25T03:06:59.382Z,8.73
2023-01-25T03:09:46.586Z,8.10
2023-01-25T03:12:33.513Z,7.20
2023-01-25T03:15:35.324Z,6.67
2023-01-25T03:18:17.240Z,6.43
2023-01-25T03:21:19.868Z,5.43
2023-01-25T03:24:07.438Z,7.27
2023-01-25T03:27:14.649Z,6.30
2023-01-25T03:29:56.535Z,5.73
2023-01-25T03:32:43.765Z,4.80
2023-01-25T03:35:30.627Z,4.40
2023-01-25T03:38:19.822Z,5.47
2023-01-25T03:41:07.913Z,4.30
2023-01-25T03:44:11.612Z,4.63
2023-01-25T03:47:13.460Z,5.07
2023-01-25T03:50:15.293Z,4.63
2023-01-25T03:53:06.164Z,3.37
2023-01-25T03:56:09.099Z,4.57
2023-01-25T03:59:11.933Z,3.70
2023-01-25T04:02:14.794Z,3.63
2023-01-25T04:04:56.652Z,3.87
2023-01-25T04:07:43.844Z,3.77
2023-01-25T04:10:30.948Z,5.10
2023-01-25T04:13:18.154Z,4.57
2023-01-25T04:16:07.169Z,4.00
2023-01-25T04:18:54.376Z,3.90
2023-01-25T04:21:41.271Z,5.43
2023-01-25T04:24:28.587Z,4.20
2023-01-25T04:26:55.540Z,4.97
2023-01-25T04:29:42.830Z,4.40
2023-01-25T04:32:49.901Z,5.30
2023-01-25T04:35:37.234Z,5.17
2023-01-25T04:38:24.349Z,6.57
2023-01-25T04:41:29.219Z,6.53
2023-01-25T04:44:16.423Z,5.67
2023-01-25T04:47:03.870Z,6.43
2023-01-25T04:49:31.271Z,6.10
2023-01-25T04:52:38.173Z,6.87
2023-01-25T04:55:25.489Z,5.73
2023-01-25T04:58:12.460Z,6.30
2023-01-25T05:00:54.349Z,6.80
2023-01-25T05:03:41.590Z,7.17
2023-01-25T05:06:28.472Z,8.17
2023-01-25T05:09:30.881Z,7.73
2023-01-25T05:12:13.784Z,8.27
2023-01-25T05:15:15.595Z,9.17
2023-01-25T05:18:22.798Z,9.17
2023-01-25T05:21:48.868Z,8.30
2023-01-25T05:24:50.627Z,9.27
2023-01-25T05:27:38.692Z,7.37
2023-01-25T05:30:06.303Z,8.30
2023-01-25T05:32:53.532Z,7.77
2023-01-25T05:35:40.515Z,8.97
2023-01-25T05:38:42.405Z,9.30
2023-01-25T05:41:24.270Z,9.63
2023-01-25T05:44:11.444Z,7.93
2023-01-25T05:47:38.239Z,9.47
2023-01-25T05:50:40.023Z,9.37
2023-01-25T05:53:41.834Z,11.10
2023-01-25T05:56:29.265Z,10.97
2023-01-25T05:59:17.403Z,10.17
2023-01-25T06:02:19.290Z,12.47
2023-01-25T06:05:21.177Z,10.93
2023-01-25T06:08:22.960Z,10.50
2023-01-25T06:10:50.777Z,12.57
2023-01-25T06:13:57.679Z,9.80
2023-01-25T06:16:59.564Z,10.53
2023-01-25T06:19:46.877Z,9.87
2023-01-25T06:22:13.918Z,11.47
2023-01-25T06:25:15.718Z,11.30
2023-01-25T06:28:02.893Z,10.33
2023-01-25T06:31:09.878Z,10.50
2023-01-25T06:33:37.749Z,11.93
2023-01-25T06:36:25.986Z,12.57
2023-01-25T06:39:33.107Z,10.40
2023-01-25T06:42:39.982Z,11.20
2023-01-25T06:45:27.389Z,11.50
2023-01-25T06:48:54.247Z,9.57
2023-01-25T06:52:15.975Z,11.97
2023-01-25T06:55:23.692Z,14.17
2023-01-25T06:58:10.607Z,13.23
2023-01-25T07:00:57.813Z,10.93
2023-01-25T07:03:24.763Z,12.60
2023-01-25T07:06:12.207Z,10.40
2023-01-25T07:09:23.838Z,11.77
2023-01-25T07:12:26.056Z,11.50
2023-01-25T07:14:53.315Z,11.07
2023-01-25T07:18:14.832Z,11.90
2023-01-25T07:21:06.422Z,12.50
2023-01-25T07:23:54.125Z,13.57
2023-01-25T07:26:35.997Z,12.73
2023-01-25T07:29:23.317Z,12.67
2023-01-25T07:32:11.955Z,12.53
2023-01-25T07:35:33.732Z,12.53
2023-01-25T07:38:40.948Z,13.27
2023-01-25T07:41:28.066Z,15.30
2023-01-25T07:44:10.736Z,12.10
2023-01-25T07:46:58.016Z,13.93
2023-01-25T07:50:05.077Z,15.50
2023-01-25T07:52:52.295Z,14.17
2023-01-25T07:55:19.512Z,13.30
2023-01-25T07:58:21.568Z,15.30
2023-01-25T08:01:32.120Z,13.07
2023-01-25T08:04:54.189Z,12.87
2023-01-25T08:08:15.898Z,14.53
2023-01-25T08:11:17.706Z,11.90
2023-01-25T08:13:46.310Z,13.07
2023-01-25T08:16:33.452Z,12.00
2023-01-25T08:19:35.710Z,15.57
2023-01-25T08:22:37.604Z,12.97
2023-01-25T08:25:19.473Z,13.83
2023-01-25T08:28:21.432Z,13.40
2023-01-25T08:31:31.901Z,14.57
2023-01-25T08:34:19.500Z,14.47
2023-01-25T08:37:06.447Z,15.50
2023-01-25T08:39:53.787Z,17.03
2023-01-25T08:42:43.155Z,15.13
2023-01-25T08:45:24.989Z,14.13
2023-01-25T08:47:52.212Z,16.40
2023-01-25T08:50:19.267Z,15.13
2023-01-25T08:52:46.511Z,13.77
2023-01-25T08:55:13.462Z,15.37
2023-01-25T08:57:41.181Z,14.23
2023-01-25T09:00:09.130Z,14.50
2023-01-25T09:02:36.857Z,16.50
2023-01-25T09:05:03.972Z,14.23
2023-01-25T09:07:32.542Z,15.40
2023-01-25T09:10:00.545Z,16.23
2023-01-25T09:12:27.816Z,17.73
2023-01-25T09:14:54.748Z,15.43
2023-01-25T09:17:21.971Z,17.47
2023-01-25T09:19:52.451Z,16.60
2023-01-25T09:22:19.818Z,17.20
2023-01-25T09:24:52.293Z,14.53
2023-01-25T09:27:19.697Z,15.70
2023-01-25T09:30:01.001Z,18.17
2023-01-25T09:32:29.760Z,15.27
2023-01-25T09:34:56.852Z,16.00
2023-01-25T09:37:24.110Z,16.27
2023-01-25T09:39:51.150Z,16.97
2023-01-25T09:42:32.675Z,15.23
2023-01-25T09:45:22.739Z,17.80
2023-01-25T09:47:59.313Z,18.73
2023-01-25T09:50:35.446Z,15.67
2023-01-25T09:53:24.520Z,15.73
2023-01-25T09:55:54.374Z,15.37
2023-01-25T09:58:43.198Z,16.83
2023-01-25T10:01:36.616Z,16.40
2023-01-25T10:04:18.620Z,18.57
2023-01-25T10:07:00.108Z,18.37
2023-01-25T10:09:47.003Z,16.83
2023-01-25T10:12:25.219Z,16.53
2023-01-25T10:14:53.146Z,16.23
2023-01-25T10:17:39.100Z,17.13
2023-01-25T10:20:10.098Z,15.40
2023-01-25T10:22:45.348Z,17.43
2023-01-25T10:25:29.322Z,16.97
2023-01-25T10:28:14.734Z,18.63
2023-01-25T10:31:07.963Z,14.67
2023-01-25T10:33:40.647Z,17.30
2023-01-25T10:36:18.313Z,15.87
2023-01-25T10:38:59.139Z,19.13
2023-01-25T10:41:43.034Z,17.30
2023-01-25T10:44:21.859Z,16.57
2023-01-25T10:47:16.821Z,17.00
2023-01-25T10:49:48.469Z,21.23
2023-01-25T10:52:27.509Z,16.67
2023-01-25T10:55:15.994Z,18.00
2023-01-25T10:57:53.652Z,20.13
2023-01-25T11:00:40.488Z,16.97
2023-01-25T11:03:20.944Z,19.23
2023-01-25T11:05:57.679Z,19.10
2023-01-25T11:08:30.857Z,20.13
2023-01-25T11:10:59.528Z,18.03
2023-01-25T11:13:29.150Z,20.07
2023-01-25T11:16:18.221Z,19.80
2023-01-25T11:18:53.818Z,20.97
2023-01-25T11:21:30.003Z,19.63
2023-01-25T11:24:09.738Z,18.90
2023-01-25T11:26:39.142Z,19.50
2023-01-25T11:29:07.949Z,19.10
2023-01-25T11:31:35.624Z,18.47
2023-01-25T11:34:03.416Z,18.83
2023-01-25T11:36:42.396Z,19.00
2023-01-25T11:39:31.335Z,18.77
2023-01-25T11:42:04.378Z,21.00
2023-01-25T11:44:46.586Z,19.37
2023-01-25T11:47:42.943Z,18.53
2023-01-25T11:50:21.680Z,18.50
2023-01-25T11:53:12.854Z,20.17
2023-01-25T11:56:11.621Z,19.40
2023-01-25T11:59:08.800Z,18.97
2023-01-25T12:02:08.625Z,19.60
2023-01-25T12:04:49.852Z,18.70
2023-01-25T12:07:43.041Z,18.60
2023-01-25T12:10:34.726Z,17.90
2023-01-25T12:13:17.113Z,17.27
2023-01-25T12:15:49.904Z,20.60
2023-01-25T12:18:36.304Z,17.27
2023-01-25T12:21:17.471Z,17.47
2023-01-25T12:23:56.231Z,20.63
2023-01-25T12:26:30.391Z,18.47
2023-01-25T12:29:05.896Z,18.47
2023-01-25T12:32:03.163Z,18.93
2023-01-25T12:34:37.630Z,18.73
2023-01-25T12:37:18.926Z,18.17
2023-01-25T12:40:15.319Z,19.10
2023-01-25T12:42:52.033Z,18.00
2023-01-25T12:45:25.352Z,20.43
2023-01-25T12:47:54.858Z,21.70
2023-01-25T12:50:25.865Z,19.80
2023-01-25T12:53:13.947Z,20.00
2023-01-25T12:55:41.720Z,19.37
2023-01-25T12:58:40.298Z,20.50
2023-01-25T13:01:30.859Z,19.23
2023-01-25T13:04:19.426Z,22.23
2023-01-25T13:06:55.004Z,18.63
2023-01-25T13:09:34.980Z,21.63
2023-01-25T13:12:12.482Z,19.77
2023-01-25T13:14:41.494Z,20.37
2023-01-25T13:17:30.766Z,20.10
2023-01-25T13:19:59.590Z,18.27
2023-01-25T13:22:45.289Z,18.73
2023-01-25T13:25:24.421Z,21.13
2023-01-25T13:27:52.738Z,23.30
2023-01-25T13:30:22.200Z,19.10
2023-01-25T13:32:49.408Z,19.37
2023-01-25T13:35:27.271Z,18.77
2023-01-25T13:38:05.824Z,17.13
2023-01-25T13:40:38.318Z,17.57
2023-01-25T13:43:13.085Z,22.57
2023-01-25T13:45:42.437Z,21.37
2023-01-25T13:48:21.934Z,17.67
2023-01-25T13:51:14.213Z,19.83
2023-01-25T13:53:43.360Z,17.83
2023-01-25T13:56:37.512Z,18.23
2023-01-25T13:59:04.847Z,19.00
2023-01-25T14:01:34.187Z,17.60
2023-01-25T14:04:04.710Z,18.30
2023-01-25T14:06:37.098Z,18.10
2023-01-25T14:09:16.869Z,17.33
2023-01-25T14:11:58.683Z,18.00
2023-01-25T14:14:31.414Z,19.10
2023-01-25T14:17:18.068Z,17.93
2023-01-25T14:19:49.853Z,19.70
2023-01-25T14:22:20.177Z,19.00
2023-01-25T14:25:09.661Z,19.80
2023-01-25T14:27:43.479Z,19.60
2023-01-25T14:30:22.285Z,18.67
2023-01-25T14:32:51.510Z,19.97
2023-01-25T14:35:43.260Z,17.63
2023-01-25T14:38:37.216Z,18.97
2023-01-25T14:41:40.103Z,20.20
2023-01-25T14:44:14.718Z,19.83
2023-01-25T14:46:42.201Z,19.67
2023-01-25T14:49:28.813Z,18.97
2023-01-25T14:52:05.124Z,18.90
2023-01-25T14:54:37.900Z,19.27
2023-01-25T14:57:07.534Z,17.77
2023-01-25T14:59:41.772Z,20.23
2023-01-25T15:02:46.117Z,17.73
2023-01-25T15:05:20.520Z,17.27
2023-01-25T15:08:12.261Z,18.00
2023-01-25T15:11:18.852Z,17.53
2023-01-25T15:13:46.699Z,18.03
2023-01-25T15:16:16.439Z,16.80
2023-01-25T15:18:51.287Z,18.03
2023-01-25T15:21:19.407Z,17.50
2023-01-25T15:23:48.773Z,16.93
2023-01-25T15:26:21.774Z,17.03
2023-01-25T15:28:50.839Z,15.57
2023-01-25T15:31:21.570Z,17.47
2023-01-25T15:33:48.960Z,15.30
2023-01-25T15:36:17.795Z,17.03
2023-01-25T15:38:45.619Z,16.33
2023-01-25T15:41:13.791Z,16.10
2023-01-25T15:43:41.960Z,16.27
2023-01-25T15:46:27.904Z,16.30
2023-01-25T15:48:55.937Z,17.87
2023-01-25T15:51:23.560Z,16.03
2023-01-25T15:53:50.970Z,16.50
2023-01-25T15:56:28.500Z,17.77
2023-01-25T15:58:58.889Z,16.67
2023-01-25T16:01:27.702Z,16.53
2023-01-25T16:03:56.532Z,15.90
2023-01-25T16:06:40.737Z,16.83
2023-01-25T16:09:19.852Z,17.70
2023-01-25T16:11:48.745Z,17.73
2023-01-25T16:14:16.004Z,18.20
2023-01-25T16:16:51.433Z,18.10
2023-01-25T16:19:22.009Z,17.33
2023-01-25T16:21:49.750Z,17.57
2023-01-25T16:24:17.903Z,18.13
2023-01-25T16:26:51.518Z,16.80
2023-01-25T16:29:18.936Z,17.93
2023-01-25T16:31:46.102Z,19.10
2023-01-25T16:34:13.450Z,17.63
2023-01-25T16:36:40.670Z,17.97
2023-01-25T16:39:20.080Z,17.00
2023-01-25T16:41:48.313Z,16.97
2023-01-25T16:44:16.467Z,17.47
2023-01-25T16:46:44.047Z,18.27
2023-01-25T16:49:16.935Z,17.83
2023-01-25T16:51:45.440Z,21.00
2023-01-25T16:54:12.845Z,18.73
2023-01-25T16:56:39.904Z,18.80
2023-01-25T16:59:09.331Z,18.93
2023-01-25T17:01:39.129Z,18.33
2023-01-25T17:04:06.990Z,18.30
2023-01-25T17:06:36.258Z,17.63
2023-01-25T17:09:20.407Z,16.97
2023-01-25T17:11:49.613Z,17.20
2023-01-25T17:14:19.083Z,16.83
2023-01-25T17:16:48.395Z,16.43
2023-01-25T17:19:17.171Z,17.97
2023-01-25T17:21:45.226Z,16.07
2023-01-25T17:24:19.100Z,18.03
2023-01-25T17:26:46.441Z,17.23
2023-01-25T17:29:13.924Z,18.63
2023-01-25T17:31:42.247Z,16.97
2023-01-25T17:34:13.342Z,17.83
2023-01-25T17:36:40.360Z,18.10
2023-01-25T17:39:08.197Z,17.27
2023-01-25T17:41:35.450Z,17.87
2023-01-25T17:44:03.170Z,18.30
2023-01-25T17:46:34.570Z,18.57
2023-01-25T17:49:08.368Z,16.53
2023-01-25T17:51:36.582Z,15.87
2023-01-25T17:54:04.759Z,16.97
2023-01-25T17:56:32.026Z,16.60
2023-01-25T17:59:01.456Z,16.77
2023-01-25T18:01:32.079Z,16.30
2023-01-25T18:04:00.748Z,18.47
2023-01-25T18:06:30.868Z,15.90
2023-01-25T18:09:00.696Z,17.37
2023-01-25T18:11:33.390Z,17.17
2023-01-25T18:14:08.220Z,14.83
2023-01-25T18:16:38.721Z,17.57
2023-01-25T18:19:06.799Z,17.90
2023-01-25T18:21:34.034Z,15.30
2023-01-25T18:24:05.724Z,15.33
2023-01-25T18:26:35.615Z,15.50
2023-01-25T18:29:34.581Z,17.63
2023-01-25T18:32:01.643Z,17.10
2023-01-25T18:34:28.923Z,16.00
2023-01-25T18:36:59.312Z,16.87
2023-01-25T18:39:27.353Z,16.57
2023-01-25T18:41:54.977Z,15.23
2023-01-25T18:44:22.197Z,17.63
2023-01-25T18:46:49.302Z,17.40
2023-01-25T18:49:16.572Z,16.83
2023-01-25T18:52:04.862Z,15.60
2023-01-25T18:54:32.425Z,17.80
2023-01-25T18:57:00.479Z,18.03
2023-01-25T18:59:27.943Z,18.23
2023-01-25T19:01:54.951Z,15.37
2023-01-25T19:04:22.197Z,17.27
2023-01-25T19:06:53.734Z,16.10
2023-01-25T19:09:20.961Z,15.80
2023-01-25T19:11:47.870Z,18.70
2023-01-25T19:14:15.256Z,17.23
2023-01-25T19:16:42.190Z,17.97
2023-01-25T19:19:09.860Z,17.87
2023-01-25T19:21:37.110Z,18.17
2023-01-25T19:24:04.635Z,16.13
2023-01-25T19:26:31.692Z,16.43
2023-01-25T19:28:58.896Z,16.23
2023-01-25T19:31:28.262Z,15.63
2023-01-25T19:34:00.427Z,15.27
2023-01-25T19:36:29.045Z,15.53
2023-01-25T19:38:59.718Z,15.07
2023-01-25T19:41:28.657Z,15.13
2023-01-25T19:44:03.643Z,16.33
2023-01-25T19:46:32.479Z,14.77
2023-01-25T19:49:01.909Z,15.53
2023-01-25T19:51:31.561Z,16.43
2023-01-25T19:54:04.612Z,16.90
2023-01-25T19:56:37.535Z,16.60
2023-01-25T19:59:06.808Z,17.23
2023-01-25T20:01:36.680Z,17.13
2023-01-25T20:04:06.060Z,15.60
2023-01-25T20:06:33.237Z,14.90
2023-01-25T20:09:00.497Z,18.27
2023-01-25T20:11:32.652Z,14.87
2023-01-25T20:14:02.276Z,16.13
2023-01-25T20:16:30.873Z,15.27
2023-01-25T20:18:58.499Z,16.33
2023-01-25T20:21:26.782Z,16.63
2023-01-25T20:23:58.398Z,15.73
2023-01-25T20:26:28.229Z,17.27
2023-01-25T20:28:57.498Z,15.97
2023-01-25T20:31:33.622Z,16.50
2023-01-25T20:34:03.641Z,15.53
2023-01-25T20:36:32.818Z,16.77
2023-01-25T20:39:00.642Z,15.90
2023-01-25T20:41:27.760Z,15.57
2023-01-25T20:44:04.471Z,16.80
2023-01-25T20:46:34.682Z,17.60
2023-01-25T20:49:02.256Z,17.57
2023-01-25T20:51:29.662Z,17.83
2023-01-25T20:53:57.568Z,16.60
2023-01-25T20:56:24.731Z,15.17
2023-01-25T20:58:52.864Z,16.57
2023-01-25T21:01:33.376Z,16.53
2023-01-25T21:04:00.579Z,18.07
2023-01-25T21:06:28.151Z,15.73
2023-01-25T21:08:55.416Z,15.77
2023-01-25T21:11:25.921Z,17.77
2023-01-25T21:13:54.109Z,16.50
2023-01-25T21:16:22.900Z,16.33
2023-01-25T21:18:52.652Z,15.80
2023-01-25T21:21:22.204Z,15.30
2023-01-25T21:23:50.722Z,15.90
2023-01-25T21:26:20.385Z,17.87
2023-01-25T21:28:48.369Z,16.93
2023-01-25T21:31:18.461Z,16.40
2023-01-25T21:33:46.970Z,16.27
2023-01-25T21:36:15.192Z,17.57
2023-01-25T21:38:44.627Z,16.87
2023-01-25T21:41:14.408Z,16.37
2023-01-25T21:44:00.264Z,16.53
2023-01-25T21:46:28.346Z,17.23
2023-01-25T21:49:18.296Z,20.70
2023-01-25T21:51:49.445Z,18.20
2023-01-25T21:54:21.990Z,17.20
2023-01-25T21:56:51.117Z,18.43
2023-01-25T21:59:19.107Z,17.37
2023-01-25T22:01:46.928Z,17.93
2023-01-25T22:04:16.367Z,17.57
2023-01-25T22:06:43.871Z,17.73
2023-01-25T22:09:13.297Z,17.70
2023-01-25T22:11:40.405Z,15.67
2023-01-25T22:14:07.851Z,17.07
2023-01-25T22:16:34.776Z,17.70
2023-01-25T22:19:02.011Z,17.70
2023-01-25T22:21:32.071Z,17.67
2023-01-25T22:24:01.637Z,17.97
2023-01-25T22:26:57.711Z,18.50
2023-01-25T22:29:25.433Z,17.53
2023-01-25T22:31:52.414Z,18.33
2023-01-25T22:34:19.694Z,20.20
2023-01-25T22:36:46.629Z,18.63
2023-01-25T22:39:15.012Z,18.67
2023-01-25T22:41:42.385Z,18.87
2023-01-25T22:44:10.082Z,18.13
2023-01-25T22:46:37.210Z,18.80
2023-01-25T22:49:04.943Z,18.63
2023-01-25T22:51:32.506Z,19.33
2023-01-25T22:54:00.624Z,20.97
2023-01-25T22:56:30.069Z,18.90
2023-01-25T22:58:59.553Z,19.73
2023-01-25T23:01:31.656Z,19.70
2023-01-25T23:03:59.617Z,18.13
2023-01-25T23:06:29.467Z,18.33
2023-01-25T23:08:59.907Z,19.77
2023-01-25T23:11:32.407Z,19.60
2023-01-25T23:14:18.602Z,19.07
2023-01-25T23:16:45.950Z,20.57
2023-01-25T23:19:14.525Z,21.43
2023-01-25T23:21:42.313Z,20.27
2023-01-25T23:24:10.505Z,21.10
2023-01-25T23:26:38.307Z,20.97
2023-01-25T23:29:08.619Z,19.07
2023-01-25T23:31:36.170Z,20.47
2023-01-25T23:34:05.282Z,20.40
2023-01-25T23:36:34.986Z,18.33
2023-01-25T23:39:02.479Z,19.67
2023-01-25T23:41:30.308Z,18.10
2023-01-25T23:43:58.167Z,20.43
2023-01-25T23:46:26.022Z,19.20
2023-01-25T23:48:53.298Z,19.03
2023-01-25T23:51:20.845Z,18.60
2023-01-25T23:53:48.101Z,19.80
2023-01-25T23:56:21.347Z,17.93
2023-01-25T23:58:49.065Z,19.67
